createdAt,value
2022-08-23T00:01:29.168Z,19.38
2022-08-23T00:04:00.950Z,19.33
2022-08-23T00:06:27.523Z,19.33
2022-08-23T00:08:54.186Z,18.80
2022-08-23T00:11:47.154Z,18.93
2022-08-23T00:14:19.438Z,18.78
2022-08-23T00:16:46.464Z,18.66
2022-08-23T00:19:14.282Z,18.81
2022-08-23T00:21:41.423Z,19.03
2022-08-23T00:24:08.821Z,18.89
2022-08-23T00:26:48.354Z,18.77
2022-08-23T00:29:14.943Z,18.84
2022-08-23T00:31:41.483Z,18.77
2022-08-23T00:34:08.598Z,18.86
2022-08-23T00:36:35.181Z,18.61
2022-08-23T00:39:01.713Z,18.58
2022-08-23T00:41:28.242Z,18.56
2022-08-23T00:44:30.166Z,18.72
2022-08-23T00:47:16.566Z,18.67
2022-08-23T00:49:45.558Z,18.59
2022-08-23T00:52:18.650Z,18.31
2022-08-23T00:54:45.748Z,18.34
2022-08-23T00:57:14.492Z,18.42
2022-08-23T00:59:41.681Z,19.08
2022-08-23T01:02:08.472Z,19.89
2022-08-23T01:04:38.508Z,20.19
2022-08-23T01:07:22.242Z,18.98
2022-08-23T01:09:49.967Z,18.37
2022-08-23T01:12:32.535Z,18.29
2022-08-23T01:15:11.521Z,17.96
2022-08-23T01:17:44.768Z,17.86
2022-08-23T01:20:14.495Z,17.66
2022-08-23T01:22:58.125Z,17.71
2022-08-23T01:25:27.209Z,17.68
2022-08-23T01:27:53.842Z,17.80
2022-08-23T01:30:22.522Z,18.31
2022-08-23T01:32:56.917Z,18.24
2022-08-23T01:35:28.397Z,18.14
2022-08-23T01:37:54.995Z,18.05
2022-08-23T01:40:21.719Z,17.82
2022-08-23T01:42:49.496Z,17.76
2022-08-23T01:45:16.887Z,17.68
2022-08-23T01:47:44.326Z,17.68
2022-08-23T01:50:12.772Z,17.52
2022-08-23T01:52:46.775Z,17.47
2022-08-23T01:55:15.862Z,17.41
2022-08-23T01:57:43.414Z,17.41
2022-08-23T02:00:13.723Z,17.28
2022-08-23T02:02:40.878Z,17.17
2022-08-23T02:05:08.977Z,17.28
2022-08-23T02:07:36.354Z,17.31
2022-08-23T02:10:04.503Z,17.60
2022-08-23T02:12:31.322Z,17.58
2022-08-23T02:15:08.726Z,17.24
2022-08-23T02:17:37.267Z,17.35
2022-08-23T02:20:05.430Z,17.31
2022-08-23T02:22:33.445Z,17.26
2022-08-23T02:25:00.947Z,17.25
2022-08-23T02:27:27.515Z,17.33
2022-08-23T02:29:55.569Z,17.49
2022-08-23T02:32:22.576Z,17.80
2022-08-23T02:35:05.642Z,17.75
2022-08-23T02:37:34.642Z,17.61
2022-08-23T02:40:02.073Z,17.72
2022-08-23T02:42:29.266Z,17.46
2022-08-23T02:44:55.945Z,17.38
2022-08-23T02:47:23.613Z,17.27
2022-08-23T02:50:04.993Z,16.87
2022-08-23T02:52:31.529Z,16.95
2022-08-23T02:54:58.783Z,17.11
2022-08-23T02:57:25.605Z,17.07
2022-08-23T02:59:54.678Z,17.10
2022-08-23T03:02:21.826Z,17.01
2022-08-23T03:04:48.578Z,17.13
2022-08-23T03:07:15.124Z,17.24
2022-08-23T03:09:41.642Z,17.25
2022-08-23T03:12:08.183Z,17.29
2022-08-23T03:14:38.039Z,17.04
2022-08-23T03:17:05.229Z,17.04
2022-08-23T03:19:31.803Z,17.14
2022-08-23T03:21:58.321Z,17.12
2022-08-23T03:24:25.264Z,16.83
2022-08-23T03:26:52.497Z,16.69
2022-08-23T03:29:19.791Z,16.75
2022-08-23T03:31:59.609Z,16.79
2022-08-23T03:34:27.510Z,16.81
2022-08-23T03:36:54.190Z,16.77
2022-08-23T03:39:20.726Z,16.81
2022-08-23T03:41:48.199Z,16.74
2022-08-23T03:44:14.767Z,16.78
2022-08-23T03:46:43.588Z,16.68
2022-08-23T03:49:10.411Z,16.73
2022-08-23T03:51:50.133Z,16.68
2022-08-23T03:54:16.791Z,16.58
2022-08-23T03:56:55.978Z,16.57
2022-08-23T03:59:24.000Z,16.70
2022-08-23T04:01:50.614Z,16.91
2022-08-23T04:04:17.779Z,17.04
2022-08-23T04:07:04.231Z,16.95
2022-08-23T04:09:31.306Z,17.09
2022-08-23T04:11:58.041Z,17.04
2022-08-23T04:14:24.873Z,17.14
2022-08-23T04:16:52.217Z,17.30
2022-08-23T04:19:21.265Z,16.90
2022-08-23T04:22:00.914Z,16.95
2022-08-23T04:24:34.456Z,17.03
2022-08-23T04:27:01.049Z,16.86
2022-08-23T04:29:33.824Z,16.95
2022-08-23T04:32:02.994Z,17.07
2022-08-23T04:34:33.779Z,17.37
2022-08-23T04:37:00.542Z,17.46
2022-08-23T04:39:27.430Z,16.74
2022-08-23T04:42:15.019Z,17.16
2022-08-23T04:44:42.709Z,16.68
2022-08-23T04:47:11.711Z,17.13
2022-08-23T04:49:38.833Z,17.39
2022-08-23T04:52:06.028Z,17.52
2022-08-23T04:54:32.944Z,17.58
2022-08-23T04:57:18.308Z,17.30
2022-08-23T04:59:47.274Z,17.14
2022-08-23T05:02:15.474Z,17.20
2022-08-23T05:04:42.915Z,17.59
2022-08-23T05:07:09.593Z,17.55
2022-08-23T05:09:36.397Z,17.50
2022-08-23T05:12:03.449Z,17.47
2022-08-23T05:14:31.245Z,17.60
2022-08-23T05:16:57.786Z,17.50
2022-08-23T05:19:25.289Z,17.66
2022-08-23T05:21:56.342Z,17.34
2022-08-23T05:24:29.062Z,17.73
2022-08-23T05:26:55.599Z,17.81
2022-08-23T05:29:22.175Z,17.63
2022-08-23T05:31:50.664Z,17.61
2022-08-23T05:34:22.401Z,17.49
2022-08-23T05:36:55.212Z,17.48
2022-08-23T05:39:24.248Z,17.67
2022-08-23T05:41:59.534Z,17.61
2022-08-23T05:44:26.125Z,17.98
2022-08-23T05:46:52.657Z,18.06
2022-08-23T05:49:30.962Z,17.79
2022-08-23T05:51:58.317Z,17.47
2022-08-23T05:54:29.385Z,17.67
2022-08-23T05:57:17.244Z,17.67
2022-08-23T05:59:43.872Z,17.75
2022-08-23T06:02:10.500Z,17.85
2022-08-23T06:04:37.170Z,17.79
2022-08-23T06:07:05.826Z,18.14
2022-08-23T06:09:32.809Z,17.90
2022-08-23T06:12:00.046Z,17.80
2022-08-23T06:14:26.875Z,18.16
2022-08-23T06:16:56.001Z,18.09
2022-08-23T06:19:26.334Z,18.13
2022-08-23T06:22:12.498Z,17.91
2022-08-23T06:24:41.773Z,17.77
2022-08-23T06:27:13.418Z,17.42
2022-08-23T06:29:41.114Z,17.68
2022-08-23T06:32:26.256Z,17.85
2022-08-23T06:35:37.678Z,18.18
2022-08-23T06:38:06.682Z,18.30
2022-08-23T06:40:51.802Z,18.71
2022-08-23T06:43:39.160Z,18.88
2022-08-23T06:46:29.230Z,18.89
2022-08-23T06:48:56.549Z,18.76
2022-08-23T06:51:27.003Z,18.94
2022-08-23T06:53:57.437Z,19.03
2022-08-23T06:57:02.292Z,18.94
2022-08-23T06:59:31.762Z,19.41
2022-08-23T07:02:12.722Z,19.18
2022-08-23T07:04:58.227Z,19.41
2022-08-23T07:07:44.339Z,19.43
2022-08-23T07:10:13.390Z,19.38
2022-08-23T07:12:42.655Z,19.19
2022-08-23T07:15:11.049Z,19.06
2022-08-23T07:17:37.974Z,19.40
2022-08-23T07:20:04.830Z,19.07
2022-08-23T07:22:33.607Z,19.03
2022-08-23T07:25:00.682Z,19.47
2022-08-23T07:27:28.749Z,19.69
2022-08-23T07:30:04.413Z,19.26
2022-08-23T07:32:31.131Z,19.36
2022-08-23T07:35:02.648Z,19.32
2022-08-23T07:37:30.958Z,19.42
2022-08-23T07:39:59.635Z,19.48
2022-08-23T07:42:26.291Z,19.12
2022-08-23T07:44:55.086Z,19.81
2022-08-23T07:47:24.690Z,19.66
2022-08-23T07:49:54.360Z,19.90
2022-08-23T07:52:21.378Z,20.16
2022-08-23T07:54:49.593Z,19.94
2022-08-23T07:57:37.198Z,20.53
2022-08-23T08:00:22.277Z,20.49
2022-08-23T08:03:02.273Z,20.55
2022-08-23T08:05:40.914Z,20.54
2022-08-23T08:08:08.162Z,21.46
2022-08-23T08:10:38.426Z,21.65
2022-08-23T08:13:05.338Z,21.65
2022-08-23T08:15:32.218Z,22.76
2022-08-23T08:18:05.828Z,22.92
2022-08-23T08:20:51.470Z,22.82
2022-08-23T08:23:53.073Z,22.37
2022-08-23T08:26:45.898Z,23.13
2022-08-23T08:29:13.548Z,24.61
2022-08-23T08:31:44.061Z,24.54
2022-08-23T08:34:11.179Z,22.76
2022-08-23T08:36:41.221Z,22.73
2022-08-23T08:39:16.391Z,23.16
2022-08-23T08:42:05.246Z,23.23
2022-08-23T08:44:34.513Z,23.72
2022-08-23T08:47:06.996Z,22.88
2022-08-23T08:49:36.931Z,22.51
2022-08-23T08:52:11.315Z,23.03
2022-08-23T08:54:38.799Z,22.95
2022-08-23T08:57:07.685Z,22.98
2022-08-23T08:59:55.247Z,23.31
2022-08-23T09:02:32.371Z,22.58
2022-08-23T09:05:09.585Z,23.21
2022-08-23T09:07:47.306Z,22.82
2022-08-23T09:10:17.002Z,22.95
2022-08-23T09:12:56.981Z,22.40
2022-08-23T09:15:29.783Z,21.95
2022-08-23T09:18:07.575Z,22.46
2022-08-23T09:20:34.855Z,22.02
2022-08-23T09:23:15.234Z,22.29
2022-08-23T09:25:50.493Z,22.32
2022-08-23T09:28:17.379Z,22.42
2022-08-23T09:30:49.319Z,21.57
2022-08-23T09:33:17.667Z,22.43
2022-08-23T09:35:52.377Z,21.87
2022-08-23T09:38:20.332Z,21.77
2022-08-23T09:40:51.308Z,23.09
2022-08-23T09:43:18.285Z,22.52
2022-08-23T09:45:50.929Z,23.22
2022-08-23T09:48:35.940Z,23.44
2022-08-23T09:51:21.637Z,23.40
2022-08-23T09:53:50.631Z,23.82
2022-08-23T09:56:27.244Z,23.84
2022-08-23T09:58:54.505Z,23.78
2022-08-23T10:01:39.319Z,23.79
2022-08-23T10:04:14.415Z,23.92
2022-08-23T10:06:43.891Z,22.87
2022-08-23T10:09:21.625Z,23.29
2022-08-23T10:11:49.979Z,24.96
2022-08-23T10:14:18.862Z,23.53
2022-08-23T10:17:05.204Z,24.62
2022-08-23T10:19:44.321Z,24.88
2022-08-23T10:22:20.141Z,24.42
2022-08-23T10:25:14.059Z,25.54
2022-08-23T10:28:02.495Z,25.04
2022-08-23T10:30:40.502Z,24.83
2022-08-23T10:33:18.917Z,24.91
2022-08-23T10:36:04.370Z,24.67
2022-08-23T10:38:34.964Z,24.54
2022-08-23T10:41:03.878Z,24.13
2022-08-23T10:43:36.895Z,24.06
2022-08-23T10:46:07.420Z,23.62
2022-08-23T10:48:51.917Z,23.28
2022-08-23T10:51:23.063Z,23.49
2022-08-23T10:54:34.445Z,23.92
2022-08-23T10:57:05.455Z,23.25
2022-08-23T10:59:34.829Z,23.25
2022-08-23T11:02:05.129Z,22.99
2022-08-23T11:04:53.240Z,23.29
2022-08-23T11:07:31.301Z,23.36
2022-08-23T11:10:05.401Z,22.93
2022-08-23T11:12:34.528Z,23.39
2022-08-23T11:15:07.124Z,23.31
2022-08-23T11:17:49.559Z,23.22
2022-08-23T11:20:36.379Z,23.10
2022-08-23T11:23:04.881Z,22.91
2022-08-23T11:25:31.722Z,22.81
2022-08-23T11:28:16.953Z,22.78
2022-08-23T11:30:45.311Z,22.63
2022-08-23T11:33:14.557Z,22.72
2022-08-23T11:35:44.330Z,22.47
2022-08-23T11:38:14.189Z,22.48
2022-08-23T11:40:52.279Z,22.38
2022-08-23T11:43:28.214Z,22.86
2022-08-23T11:46:12.028Z,22.88
2022-08-23T11:48:43.556Z,22.64
2022-08-23T11:51:19.637Z,22.87
2022-08-23T11:53:49.225Z,23.13
2022-08-23T11:56:24.691Z,23.11
2022-08-23T11:58:51.154Z,23.18
2022-08-23T12:01:27.823Z,23.07
2022-08-23T12:03:56.830Z,23.24
2022-08-23T12:06:41.921Z,23.08
2022-08-23T12:09:12.194Z,23.70
2022-08-23T12:11:57.140Z,23.80
2022-08-23T12:14:42.524Z,23.61
2022-08-23T12:17:12.086Z,23.80
2022-08-23T12:19:41.080Z,23.80
2022-08-23T12:22:16.234Z,24.04
2022-08-23T12:24:42.696Z,23.83
2022-08-23T12:27:18.137Z,23.77
2022-08-23T12:29:54.750Z,24.15
2022-08-23T12:32:24.009Z,23.73
2022-08-23T12:35:01.374Z,23.78
2022-08-23T12:37:33.673Z,24.21
2022-08-23T12:40:02.321Z,24.25
2022-08-23T12:42:34.782Z,23.89
2022-08-23T12:45:05.253Z,23.79
2022-08-23T12:47:32.203Z,24.14
2022-08-23T12:50:01.610Z,23.64
2022-08-23T12:52:30.534Z,23.03
2022-08-23T12:54:58.093Z,23.05
2022-08-23T12:57:29.851Z,23.93
2022-08-23T13:00:16.457Z,23.39
2022-08-23T13:02:49.259Z,22.66
2022-08-23T13:05:39.086Z,23.04
2022-08-23T13:08:11.054Z,23.11
2022-08-23T13:10:39.142Z,22.63
2022-08-23T13:13:07.401Z,22.90
2022-08-23T13:15:48.599Z,23.28
2022-08-23T13:18:27.443Z,23.64
2022-08-23T13:21:12.449Z,23.12
2022-08-23T13:23:38.989Z,23.18
2022-08-23T13:26:26.866Z,22.82
2022-08-23T13:29:07.457Z,23.73
2022-08-23T13:32:12.617Z,24.39
2022-08-23T13:34:48.812Z,24.14
2022-08-23T13:37:22.339Z,24.05
2022-08-23T13:39:51.098Z,24.32
2022-08-23T13:42:26.544Z,23.98
2022-08-23T13:44:53.599Z,24.44
2022-08-23T13:47:22.919Z,24.42
2022-08-23T13:49:49.927Z,24.39
2022-08-23T13:52:50.592Z,23.73
2022-08-23T13:55:03.034Z,23.43
2022-08-23T13:57:32.223Z,24.05
2022-08-23T13:59:59.069Z,23.91
2022-08-23T14:02:26.132Z,23.95
2022-08-23T14:04:52.806Z,24.15
2022-08-23T14:07:19.519Z,23.76
2022-08-23T14:09:46.139Z,23.34
2022-08-23T14:12:18.034Z,23.18
2022-08-23T14:14:45.822Z,23.45
2022-08-23T14:17:16.692Z,22.72
2022-08-23T14:22:33.287Z,22.89
2022-08-23T14:24:59.818Z,23.15
2022-08-23T14:27:26.635Z,23.22
2022-08-23T14:29:54.404Z,23.28
2022-08-23T14:32:20.943Z,22.75
2022-08-23T14:34:47.515Z,22.80
2022-08-23T14:38:02.011Z,23.00
2022-08-23T14:40:00.664Z,22.79
2022-08-23T14:42:27.530Z,22.76
2022-08-23T14:44:54.121Z,22.57
2022-08-23T14:47:20.675Z,23.02
2022-08-23T14:49:49.887Z,23.19
2022-08-23T14:52:18.598Z,23.24
2022-08-23T14:54:45.257Z,23.22
2022-08-23T14:57:12.178Z,22.85
2022-08-23T14:59:38.802Z,22.75
2022-08-23T15:02:06.387Z,23.14
2022-08-23T15:04:34.507Z,22.85
2022-08-23T15:07:18.571Z,23.21
2022-08-23T15:09:46.420Z,22.84
2022-08-23T15:14:59.406Z,22.49
2022-08-23T15:17:30.571Z,22.76
2022-08-23T15:19:58.169Z,22.83
2022-08-23T15:22:25.284Z,22.58
2022-08-23T15:24:52.719Z,22.53
2022-08-23T15:27:19.258Z,22.60
2022-08-23T15:29:45.875Z,22.24
2022-08-23T15:32:12.841Z,22.24
2022-08-23T15:34:40.170Z,22.23
2022-08-23T15:37:13.008Z,22.17
2022-08-23T15:39:41.000Z,22.51
2022-08-23T15:42:07.616Z,22.09
2022-08-23T15:44:34.077Z,21.74
2022-08-23T15:47:01.566Z,21.78
2022-08-23T15:49:30.770Z,21.59
2022-08-23T15:51:59.469Z,21.65
2022-08-23T15:54:25.947Z,21.62
2022-08-23T15:56:53.260Z,21.41
2022-08-23T15:59:21.615Z,21.75
2022-08-23T16:01:48.281Z,21.82
2022-08-23T16:04:14.775Z,21.77
2022-08-23T16:06:42.062Z,21.88
2022-08-23T16:09:14.069Z,21.92
2022-08-23T16:11:43.239Z,21.68
2022-08-23T16:14:09.970Z,21.40
2022-08-23T16:16:37.908Z,21.38
2022-08-23T16:19:04.545Z,21.58
2022-08-23T16:21:31.312Z,21.56
2022-08-23T16:23:58.187Z,21.76
2022-08-23T16:26:34.828Z,21.74
2022-08-23T16:29:02.893Z,21.72
2022-08-23T16:31:38.962Z,21.73
2022-08-23T16:34:07.880Z,21.67
2022-08-23T16:36:34.471Z,21.74
2022-08-23T16:39:01.045Z,21.67
2022-08-23T16:41:27.590Z,21.53
2022-08-23T16:43:54.082Z,21.43
2022-08-23T16:46:21.871Z,21.43
2022-08-23T16:48:48.461Z,21.40
2022-08-23T16:51:15.353Z,21.40
2022-08-23T16:53:41.875Z,21.55
2022-08-23T16:56:11.384Z,21.58
2022-08-23T16:58:37.903Z,21.44
2022-08-23T17:01:04.787Z,21.63
2022-08-23T17:03:31.345Z,21.60
2022-08-23T17:05:57.845Z,21.54
2022-08-23T17:08:24.350Z,21.55
2022-08-23T17:10:51.470Z,21.53
2022-08-23T17:13:18.665Z,21.79
2022-08-23T17:15:45.142Z,21.72
2022-08-23T17:18:11.917Z,21.59
2022-08-23T17:20:39.194Z,21.48
2022-08-23T17:23:06.390Z,21.63
2022-08-23T17:25:33.401Z,21.60
2022-08-23T17:27:59.984Z,21.43
2022-08-23T17:30:26.841Z,21.43
2022-08-23T17:32:53.940Z,21.45
2022-08-23T17:35:22.725Z,21.15
2022-08-23T17:37:49.225Z,21.13
2022-08-23T17:40:17.350Z,21.08
2022-08-23T17:42:47.721Z,21.02
2022-08-23T17:45:14.357Z,20.87
2022-08-23T17:47:41.175Z,20.73
2022-08-23T17:50:08.291Z,20.68
2022-08-23T17:52:35.066Z,20.87
2022-08-23T17:55:01.634Z,20.49
2022-08-23T17:57:28.763Z,20.49
2022-08-23T17:59:58.790Z,20.86
2022-08-23T18:02:25.368Z,20.84
2022-08-23T18:04:51.891Z,20.70
2022-08-23T18:07:21.807Z,20.58
2022-08-23T18:09:48.860Z,20.70
2022-08-23T18:12:15.577Z,20.40
2022-08-23T18:14:42.201Z,20.38
2022-08-23T18:17:08.691Z,20.60
2022-08-23T18:19:35.218Z,20.47
2022-08-23T18:22:02.643Z,20.52
2022-08-23T18:24:29.373Z,20.26
2022-08-23T18:27:15.010Z,20.38
2022-08-23T18:29:47.416Z,20.23
2022-08-23T18:32:18.400Z,20.12
2022-08-23T18:34:45.022Z,20.22
2022-08-23T18:37:11.540Z,20.01
2022-08-23T18:39:38.040Z,20.20
2022-08-23T18:42:05.285Z,20.15
2022-08-23T18:44:31.949Z,20.30
2022-08-23T18:46:58.704Z,20.39
2022-08-23T18:49:25.273Z,20.34
2022-08-23T18:51:51.791Z,20.36
2022-08-23T18:54:18.418Z,20.25
2022-08-23T18:56:45.022Z,20.34
2022-08-23T18:59:12.904Z,20.50
2022-08-23T19:01:40.781Z,20.67
2022-08-23T19:04:07.810Z,20.59
2022-08-23T19:06:34.450Z,20.41
2022-08-23T19:09:01.057Z,20.27
2022-08-23T19:11:28.051Z,20.33
2022-08-23T19:13:54.899Z,20.31
2022-08-23T19:16:23.871Z,20.23
2022-08-23T19:18:50.841Z,20.32
2022-08-23T19:21:20.590Z,20.32
2022-08-23T19:23:48.162Z,20.22
2022-08-23T19:26:15.445Z,20.17
2022-08-23T19:28:42.746Z,20.23
2022-08-23T19:31:09.884Z,20.08
2022-08-23T19:33:36.528Z,20.08
2022-08-23T19:36:03.415Z,20.07
2022-08-23T19:38:30.097Z,20.11
2022-08-23T19:40:57.974Z,19.99
2022-08-23T19:43:25.211Z,20.06
2022-08-23T19:45:51.999Z,20.25
2022-08-23T19:48:19.269Z,20.33
2022-08-23T19:50:46.632Z,20.20
2022-08-23T19:53:13.333Z,20.07
2022-08-23T19:55:42.269Z,20.09
2022-08-23T19:58:12.849Z,20.19
2022-08-23T20:00:39.534Z,20.10
2022-08-23T20:03:06.307Z,19.90
2022-08-23T20:05:34.229Z,19.91
2022-08-23T20:08:00.952Z,20.06
2022-08-23T20:10:27.617Z,20.17
2022-08-23T20:12:54.158Z,19.90
2022-08-23T20:15:20.845Z,20.39
2022-08-23T20:17:47.343Z,20.30
2022-08-23T20:20:13.926Z,20.35
2022-08-23T20:22:59.235Z,20.39
2022-08-23T20:25:25.799Z,20.38
2022-08-23T20:27:52.390Z,20.18
2022-08-23T20:30:18.899Z,20.21
2022-08-23T20:32:45.494Z,20.18
2022-08-23T20:35:12.106Z,20.21
2022-08-23T20:37:39.038Z,20.12
2022-08-23T20:40:06.158Z,19.95
2022-08-23T20:42:32.794Z,20.02
2022-08-23T20:44:59.330Z,20.13
2022-08-23T20:47:25.921Z,20.02
2022-08-23T20:49:52.465Z,19.70
2022-08-23T20:52:18.954Z,19.92
2022-08-23T20:54:45.978Z,19.76
2022-08-23T20:57:12.513Z,19.95
2022-08-23T20:59:44.189Z,19.89
2022-08-23T21:02:11.442Z,19.94
2022-08-23T21:04:38.093Z,19.71
2022-08-23T21:07:08.191Z,19.70
2022-08-23T21:09:34.853Z,19.66
2022-08-23T21:12:01.398Z,19.74
2022-08-23T21:14:27.957Z,19.55
2022-08-23T21:16:54.669Z,19.54
2022-08-23T21:19:21.242Z,19.64
2022-08-23T21:21:47.785Z,19.61
2022-08-23T21:24:14.380Z,19.58
2022-08-23T21:26:40.896Z,19.43
2022-08-23T21:29:07.862Z,19.46
2022-08-23T21:31:35.121Z,19.47
2022-08-23T21:34:01.734Z,19.39
2022-08-23T21:36:28.372Z,19.57
2022-08-23T21:38:54.942Z,19.52
2022-08-23T21:41:30.403Z,19.63
2022-08-23T21:43:57.064Z,19.51
2022-08-23T21:46:23.645Z,19.65
2022-08-23T21:48:50.476Z,19.59
2022-08-23T21:51:17.039Z,19.32
2022-08-23T21:53:43.556Z,19.37
2022-08-23T21:56:10.048Z,19.44
2022-08-23T21:58:36.538Z,19.38
2022-08-23T22:01:03.020Z,19.54
2022-08-23T22:03:29.686Z,19.36
2022-08-23T22:05:56.194Z,19.38
2022-08-23T22:08:22.699Z,19.38
2022-08-23T22:10:57.309Z,19.17
2022-08-23T22:13:26.067Z,19.26
2022-08-23T22:15:52.631Z,19.36
2022-08-23T22:18:19.517Z,19.40
2022-08-23T22:20:46.484Z,19.36
2022-08-23T22:23:13.035Z,19.43
2022-08-23T22:25:39.622Z,19.39
2022-08-23T22:28:06.123Z,19.56
2022-08-23T22:30:32.613Z,19.45
2022-08-23T22:32:59.215Z,19.59
2022-08-23T22:35:25.710Z,19.54
2022-08-23T22:38:12.350Z,19.63
2022-08-23T22:40:39.450Z,19.63
2022-08-23T22:43:06.090Z,19.49
2022-08-23T22:45:32.594Z,19.44
2022-08-23T22:47:59.158Z,19.42
2022-08-23T22:50:25.666Z,19.41
2022-08-23T22:52:52.158Z,19.31
2022-08-23T22:55:18.754Z,19.28
2022-08-23T22:57:45.450Z,19.21
2022-08-23T23:00:12.076Z,19.22
2022-08-23T23:02:38.937Z,19.27
2022-08-23T23:05:07.888Z,19.91
2022-08-23T23:07:53.215Z,19.82
2022-08-23T23:10:19.702Z,19.64
2022-08-23T23:12:46.394Z,19.00
2022-08-23T23:15:12.967Z,18.87
2022-08-23T23:17:39.440Z,18.70
2022-08-23T23:20:24.765Z,18.34
2022-08-23T23:22:51.860Z,18.15
2022-08-23T23:25:18.624Z,17.97
2022-08-23T23:27:45.146Z,18.13
2022-08-23T23:30:11.900Z,17.90
2022-08-23T23:32:38.478Z,17.85
2022-08-23T23:35:06.775Z,18.12
2022-08-23T23:37:33.332Z,17.86
2022-08-23T23:39:59.874Z,17.88
2022-08-23T23:42:26.466Z,17.91
2022-08-23T23:44:52.937Z,17.85
2022-08-23T23:47:19.558Z,17.87
2022-08-23T23:49:46.873Z,17.88
2022-08-23T23:52:13.412Z,17.68
2022-08-23T23:54:40.919Z,17.46
2022-08-23T23:57:08.018Z,17.41
2022-08-23T23:59:34.653Z,17.23
